sensor_id;sensor_type;location;lat;lon;timestamp;pressure;altitude;pressure_sealevel;temperature;humidity
11099;BME280;12223;42.650;23.364;2023-09-18T00:02:17;95207.56;;;19.82;100.00
11099;BME280;12223;42.650;23.364;2023-09-18T00:04:44;95208.38;;;19.88;100.00
11099;BME280;12223;42.650;23.364;2023-09-18T00:07:11;95200.28;;;19.67;100.00
11099;BME280;12223;42.650;23.364;2023-09-18T00:09:38;95187.41;;;19.49;100.00
11099;BME280;12223;42.650;23.364;2023-09-18T00:12:05;95196.28;;;19.70;100.00
11099;BME280;12223;42.650;23.364;2023-09-18T00:14:33;95195.72;;;19.58;100.00
11099;BME280;12223;42.650;23.364;2023-09-18T00:17:00;95200.31;;;19.73;100.00
11099;BME280;12223;42.650;23.364;2023-09-18T00:19:27;95195.22;;;19.76;100.00
11099;BME280;12223;42.650;23.364;2023-09-18T00:21:54;95187.31;;;19.29;100.00
11099;BME280;12223;42.650;23.364;2023-09-18T00:24:21;95191.22;;;19.79;100.00
11099;BME280;12223;42.650;23.364;2023-09-18T00:26:50;95192.28;;;20.08;100.00
11099;BME280;12223;42.650;23.364;2023-09-18T00:29:18;95197.66;;;20.13;100.00
11099;BME280;12223;42.650;23.364;2023-09-18T00:31:46;95202.19;;;19.77;100.00
11099;BME280;12223;42.650;23.364;2023-09-18T00:34:13;95196.00;;;19.61;100.00
11099;BME280;12223;42.650;23.364;2023-09-18T00:36:39;95200.88;;;20.10;100.00
11099;BME280;12223;42.650;23.364;2023-09-18T00:39:06;95200.84;;;19.75;100.00
11099;BME280;12223;42.650;23.364;2023-09-18T00:41:33;95197.09;;;19.76;100.00
11099;BME280;12223;42.650;23.364;2023-09-18T00:44:00;95210.22;;;19.87;100.00
11099;BME280;12223;42.650;23.364;2023-09-18T00:46:27;95208.91;;;20.25;100.00
11099;BME280;12223;42.650;23.364;2023-09-18T00:48:55;95212.94;;;20.23;100.00
11099;BME280;12223;42.650;23.364;2023-09-18T00:51:22;95212.69;;;20.14;100.00
11099;BME280;12223;42.650;23.364;2023-09-18T00:53:49;95210.28;;;20.23;100.00
11099;BME280;12223;42.650;23.364;2023-09-18T00:56:16;95216.44;;;19.98;100.00
11099;BME280;12223;42.650;23.364;2023-09-18T00:58:46;95214.78;;;19.77;100.00
11099;BME280;12223;42.650;23.364;2023-09-18T01:01:15;95221.47;;;19.69;100.00
11099;BME280;12223;42.650;23.364;2023-09-18T01:03:48;95209.13;;;19.63;100.00
11099;BME280;12223;42.650;23.364;2023-09-18T01:06:16;95216.16;;;19.84;100.00
11099;BME280;12223;42.650;23.364;2023-09-18T01:08:45;95212.88;;;19.67;100.00
11099;BME280;12223;42.650;23.364;2023-09-18T01:11:18;95220.41;;;19.65;100.00
11099;BME280;12223;42.650;23.364;2023-09-18T01:13:51;95227.09;;;19.62;100.00
11099;BME280;12223;42.650;23.364;2023-09-18T01:16:25;95222.28;;;19.70;100.00
11099;BME280;12223;42.650;23.364;2023-09-18T01:18:54;95222.03;;;19.81;100.00
11099;BME280;12223;42.650;23.364;2023-09-18T01:21:22;95224.75;;;20.17;100.00
11099;BME280;12223;42.650;23.364;2023-09-18T01:23:50;95222.34;;;20.10;100.00
11099;BME280;12223;42.650;23.364;2023-09-18T01:26:17;95218.84;;;20.25;100.00
11099;BME280;12223;42.650;23.364;2023-09-18T01:28:44;95225.00;;;20.20;100.00
11099;BME280;12223;42.650;23.364;2023-09-18T01:31:11;95213.66;;;19.52;100.00
11099;BME280;12223;42.650;23.364;2023-09-18T01:33:38;95220.97;;;19.77;100.00
11099;BME280;12223;42.650;23.364;2023-09-18T01:36:07;95231.38;;;19.74;100.00
11099;BME280;12223;42.650;23.364;2023-09-18T01:38:34;95234.88;;;19.69;100.00
11099;BME280;12223;42.650;23.364;2023-09-18T01:41:03;95231.38;;;19.68;100.00
11099;BME280;12223;42.650;23.364;2023-09-18T01:43:30;95225.00;;;19.85;100.00
11099;BME280;12223;42.650;23.364;2023-09-18T01:45:57;95224.19;;;19.84;100.00
11099;BME280;12223;42.650;23.364;2023-09-18T01:48:24;95229.00;;;19.92;100.00
11099;BME280;12223;42.650;23.364;2023-09-18T01:50:51;95232.53;;;20.03;100.00
11099;BME280;12223;42.650;23.364;2023-09-18T01:53:17;95222.81;;;19.72;100.00
11099;BME280;12223;42.650;23.364;2023-09-18T01:55:44;95229.50;;;19.74;100.00
11099;BME280;12223;42.650;23.364;2023-09-18T01:58:14;95215.53;;;19.52;100.00
11099;BME280;12223;42.650;23.364;2023-09-18T02:00:41;95226.56;;;19.81;100.00
11099;BME280;12223;42.650;23.364;2023-09-18T02:03:07;95235.72;;;19.95;100.00
11099;BME280;12223;42.650;23.364;2023-09-18T02:05:34;95233.41;;;19.36;100.00
11099;BME280;12223;42.650;23.364;2023-09-18T02:08:02;95231.81;;;19.40;100.00
11099;BME280;12223;42.650;23.364;2023-09-18T02:10:29;95229.06;;;19.20;100.00
11099;BME280;12223;42.650;23.364;2023-09-18T02:12:56;95231.19;;;19.23;100.00
11099;BME280;12223;42.650;23.364;2023-09-18T02:15:24;95232.44;;;19.67;100.00
11099;BME280;12223;42.650;23.364;2023-09-18T02:17:51;95238.66;;;19.88;100.00
11099;BME280;12223;42.650;23.364;2023-09-18T02:20:18;95241.28;;;19.63;100.00
11099;BME280;12223;42.650;23.364;2023-09-18T02:22:45;95238.91;;;19.87;100.00
11099;BME280;12223;42.650;23.364;2023-09-18T02:25:12;95231.16;;;20.31;100.00
11099;BME280;12223;42.650;23.364;2023-09-18T02:27:39;95232.53;;;20.23;100.00
11099;BME280;12223;42.650;23.364;2023-09-18T02:30:07;95240.81;;;19.91;100.00
11099;BME280;12223;42.650;23.364;2023-09-18T02:32:36;95237.34;;;20.21;100.00
11099;BME280;12223;42.650;23.364;2023-09-18T02:35:04;95239.47;;;19.79;100.00
11099;BME280;12223;42.650;23.364;2023-09-18T02:37:32;95239.03;;;19.35;100.00
11099;BME280;12223;42.650;23.364;2023-09-18T02:39:59;95239.66;;;19.47;100.00
11099;BME280;12223;42.650;23.364;2023-09-18T02:42:26;95226.41;;;19.30;100.00
11099;BME280;12223;42.650;23.364;2023-09-18T02:44:52;95234.06;;;19.74;100.00
11099;BME280;12223;42.650;23.364;2023-09-18T02:47:19;95229.25;;;19.81;100.00
11099;BME280;12223;42.650;23.364;2023-09-18T02:49:47;95234.84;;;19.59;100.00
11099;BME280;12223;42.650;23.364;2023-09-18T02:52:14;95228.59;;;19.38;100.00
11099;BME280;12223;42.650;23.364;2023-09-18T02:54:41;95234.03;;;19.58;100.00
11099;BME280;12223;42.650;23.364;2023-09-18T02:57:07;95235.34;;;19.46;100.00
11099;BME280;12223;42.650;23.364;2023-09-18T02:59:34;95237.44;;;19.39;100.00
11099;BME280;12223;42.650;23.364;2023-09-18T03:02:01;95233.38;;;19.31;100.00
11099;BME280;12223;42.650;23.364;2023-09-18T03:04:29;95239.16;;;19.65;100.00
11099;BME280;12223;42.650;23.364;2023-09-18T03:06:57;95238.34;;;19.64;100.00
11099;BME280;12223;42.650;23.364;2023-09-18T03:09:24;95239.56;;;19.42;100.00
11099;BME280;12223;42.650;23.364;2023-09-18T03:11:50;95236.41;;;19.50;100.00
11099;BME280;12223;42.650;23.364;2023-09-18T03:14:17;95235.00;;;19.37;100.00
11099;BME280;12223;42.650;23.364;2023-09-18T03:16:44;95231.50;;;19.26;100.00
11099;BME280;12223;42.650;23.364;2023-09-18T03:19:11;95228.84;;;19.32;100.00
11099;BME280;12223;42.650;23.364;2023-09-18T03:21:37;95233.97;;;19.43;100.00
11099;BME280;12223;42.650;23.364;2023-09-18T03:24:06;95234.75;;;19.44;100.00
11099;BME280;12223;42.650;23.364;2023-09-18T03:26:33;95228.38;;;18.87;100.00
11099;BME280;12223;42.650;23.364;2023-09-18T03:29:00;95225.53;;;19.09;100.00
11099;BME280;12223;42.650;23.364;2023-09-18T03:31:27;95221.63;;;19.37;100.00
11099;BME280;12223;42.650;23.364;2023-09-18T03:33:54;95213.47;;;19.02;100.00
11099;BME280;12223;42.650;23.364;2023-09-18T03:36:21;95207.22;;;18.91;100.00
11099;BME280;12223;42.650;23.364;2023-09-18T03:38:48;95215.38;;;19.16;100.00
11099;BME280;12223;42.650;23.364;2023-09-18T03:41:17;95221.84;;;19.25;100.00
11099;BME280;12223;42.650;23.364;2023-09-18T03:43:43;95218.94;;;19.42;100.00
11099;BME280;12223;42.650;23.364;2023-09-18T03:46:10;95214.13;;;19.34;100.00
11099;BME280;12223;42.650;23.364;2023-09-18T03:48:37;95206.72;;;18.94;100.00
11099;BME280;12223;42.650;23.364;2023-09-18T03:51:04;95215.25;;;18.91;100.00
11099;BME280;12223;42.650;23.364;2023-09-18T03:53:32;95215.19;;;19.38;100.00
11099;BME280;12223;42.650;23.364;2023-09-18T03:55:59;95217.31;;;19.31;100.00
11099;BME280;12223;42.650;23.364;2023-09-18T03:58:27;95215.59;;;19.05;100.00
11099;BME280;12223;42.650;23.364;2023-09-18T04:00:54;95209.16;;;19.01;100.00
11099;BME280;12223;42.650;23.364;2023-09-18T04:03:22;95211.78;;;18.91;100.00
11099;BME280;12223;42.650;23.364;2023-09-18T04:05:48;95215.22;;;18.81;100.00
11099;BME280;12223;42.650;23.364;2023-09-18T04:08:15;95210.25;;;19.10;100.00
11099;BME280;12223;42.650;23.364;2023-09-18T04:10:42;95204.88;;;19.00;100.00
11099;BME280;12223;42.650;23.364;2023-09-18T04:13:09;95211.16;;;18.73;100.00
11099;BME280;12223;42.650;23.364;2023-09-18T04:15:37;95207.53;;;18.95;100.00
11099;BME280;12223;42.650;23.364;2023-09-18T04:18:04;95209.94;;;18.54;100.00
11099;BME280;12223;42.650;23.364;2023-09-18T04:20:31;95202.38;;;18.41;100.00
11099;BME280;12223;42.650;23.364;2023-09-18T04:23:16;95203.59;;;18.65;100.00
11099;BME280;12223;42.650;23.364;2023-09-18T04:25:43;95205.91;;;18.94;100.00
11099;BME280;12223;42.650;23.364;2023-09-18T04:28:13;95214.03;;;19.09;100.00
11099;BME280;12223;42.650;23.364;2023-09-18T04:30:41;95224.91;;;18.92;100.00
11099;BME280;12223;42.650;23.364;2023-09-18T04:33:07;95226.09;;;19.16;100.00
11099;BME280;12223;42.650;23.364;2023-09-18T04:35:34;95228.69;;;19.63;100.00
11099;BME280;12223;42.650;23.364;2023-09-18T04:38:02;95230.34;;;19.90;100.00
11099;BME280;12223;42.650;23.364;2023-09-18T04:40:29;95228.47;;;19.85;100.00
11099;BME280;12223;42.650;23.364;2023-09-18T04:42:57;95230.63;;;20.14;100.00
11099;BME280;12223;42.650;23.364;2023-09-18T04:45:24;95231.41;;;19.84;100.00
11099;BME280;12223;42.650;23.364;2023-09-18T04:47:52;95231.13;;;19.80;100.00
11099;BME280;12223;42.650;23.364;2023-09-18T04:50:19;95229.84;;;20.23;100.00
11099;BME280;12223;42.650;23.364;2023-09-18T04:52:46;95237.59;;;20.80;100.00
11099;BME280;12223;42.650;23.364;2023-09-18T04:55:13;95247.03;;;20.37;100.00
11099;BME280;12223;42.650;23.364;2023-09-18T04:57:40;95228.25;;;20.37;100.00
11099;BME280;12223;42.650;23.364;2023-09-18T05:00:07;95236.28;;;20.42;100.00
11099;BME280;12223;42.650;23.364;2023-09-18T05:02:38;95240.50;;;20.99;100.00
11099;BME280;12223;42.650;23.364;2023-09-18T05:05:07;95230.53;;;21.10;100.00
11099;BME280;12223;42.650;23.364;2023-09-18T05:07:35;95234.69;;;21.51;100.00
11099;BME280;12223;42.650;23.364;2023-09-18T05:10:02;95220.66;;;22.09;100.00
11099;BME280;12223;42.650;23.364;2023-09-18T05:12:30;95232.41;;;22.52;100.00
11099;BME280;12223;42.650;23.364;2023-09-18T05:14:57;95228.84;;;22.90;96.41
11099;BME280;12223;42.650;23.364;2023-09-18T05:17:40;95235.28;;;23.65;90.26
11099;BME280;12223;42.650;23.364;2023-09-18T05:20:16;95236.66;;;24.89;80.57
11099;BME280;12223;42.650;23.364;2023-09-18T05:22:43;95248.41;;;26.16;69.28
11099;BME280;12223;42.650;23.364;2023-09-18T05:25:11;95243.91;;;27.23;61.03
11099;BME280;12223;42.650;23.364;2023-09-18T05:27:38;95247.09;;;26.94;60.33
11099;BME280;12223;42.650;23.364;2023-09-18T05:30:11;95245.19;;;27.56;57.68
11099;BME280;12223;42.650;23.364;2023-09-18T05:32:38;95250.59;;;27.26;57.64
11099;BME280;12223;42.650;23.364;2023-09-18T05:35:06;95247.28;;;27.77;56.82
11099;BME280;12223;42.650;23.364;2023-09-18T05:37:37;95252.81;;;28.89;51.70
11099;BME280;12223;42.650;23.364;2023-09-18T05:40:05;95247.81;;;28.05;52.83
11099;BME280;12223;42.650;23.364;2023-09-18T05:42:34;95256.38;;;29.27;49.79
11099;BME280;12223;42.650;23.364;2023-09-18T05:45:01;95247.31;;;30.73;45.77
11099;BME280;12223;42.650;23.364;2023-09-18T05:47:29;95250.59;;;31.93;41.28
11099;BME280;12223;42.650;23.364;2023-09-18T05:49:56;95256.44;;;32.44;39.67
11099;BME280;12223;42.650;23.364;2023-09-18T05:52:23;95264.84;;;32.51;39.12
11099;BME280;12223;42.650;23.364;2023-09-18T05:54:52;95267.72;;;32.55;38.26
11099;BME280;12223;42.650;23.364;2023-09-18T05:57:18;95263.97;;;32.87;37.91
11099;BME280;12223;42.650;23.364;2023-09-18T05:59:45;95266.69;;;33.74;36.45
11099;BME280;12223;42.650;23.364;2023-09-18T06:02:12;95269.47;;;33.78;35.70
11099;BME280;12223;42.650;23.364;2023-09-18T06:04:39;95267.44;;;34.41;35.37
11099;BME280;12223;42.650;23.364;2023-09-18T06:07:05;95262.34;;;34.78;34.15
11099;BME280;12223;42.650;23.364;2023-09-18T06:09:32;95264.31;;;35.62;33.03
11099;BME280;12223;42.650;23.364;2023-09-18T06:12:01;95259.94;;;34.38;33.98
11099;BME280;12223;42.650;23.364;2023-09-18T06:14:30;95262.16;;;33.07;36.54
11099;BME280;12223;42.650;23.364;2023-09-18T06:16:57;95261.16;;;32.07;38.03
11099;BME280;12223;42.650;23.364;2023-09-18T06:19:23;95261.91;;;32.84;36.97
11099;BME280;12223;42.650;23.364;2023-09-18T06:21:50;95262.75;;;32.32;37.27
11099;BME280;12223;42.650;23.364;2023-09-18T06:24:17;95264.97;;;31.09;39.68
11099;BME280;12223;42.650;23.364;2023-09-18T06:26:43;95266.56;;;30.89;40.00
11099;BME280;12223;42.650;23.364;2023-09-18T06:29:12;95265.09;;;29.79;42.83
11099;BME280;12223;42.650;23.364;2023-09-18T06:31:38;95261.00;;;29.27;45.14
11099;BME280;12223;42.650;23.364;2023-09-18T06:34:05;95260.94;;;28.71;46.25
11099;BME280;12223;42.650;23.364;2023-09-18T06:36:32;95266.16;;;27.90;48.75
11099;BME280;12223;42.650;23.364;2023-09-18T06:38:59;95257.84;;;27.08;51.93
11099;BME280;12223;42.650;23.364;2023-09-18T06:41:26;95259.47;;;27.48;52.48
11099;BME280;12223;42.650;23.364;2023-09-18T06:43:52;95266.81;;;27.87;51.93
11099;BME280;12223;42.650;23.364;2023-09-18T06:46:20;95264.22;;;27.74;51.39
11099;BME280;12223;42.650;23.364;2023-09-18T06:48:47;95267.72;;;27.04;54.21
11099;BME280;12223;42.650;23.364;2023-09-18T06:51:16;95254.69;;;27.06;53.90
11099;BME280;12223;42.650;23.364;2023-09-18T06:53:43;95265.84;;;26.60;55.85
11099;BME280;12223;42.650;23.364;2023-09-18T06:56:10;95264.16;;;26.72;56.31
11099;BME280;12223;42.650;23.364;2023-09-18T06:58:37;95264.97;;;26.51;57.18
11099;BME280;12223;42.650;23.364;2023-09-18T07:01:04;95264.34;;;26.76;56.24
11099;BME280;12223;42.650;23.364;2023-09-18T07:03:33;95263.56;;;27.06;55.66
11099;BME280;12223;42.650;23.364;2023-09-18T07:06:01;95264.03;;;27.31;54.74
11099;BME280;12223;42.650;23.364;2023-09-18T07:08:29;95259.69;;;27.21;54.33
11099;BME280;12223;42.650;23.364;2023-09-18T07:10:58;95257.63;;;27.66;53.03
11099;BME280;12223;42.650;23.364;2023-09-18T07:13:24;95266.91;;;27.34;53.42
11099;BME280;12223;42.650;23.364;2023-09-18T07:15:51;95270.63;;;26.40;56.87
11099;BME280;12223;42.650;23.364;2023-09-18T07:18:36;95264.03;;;26.77;56.35
11099;BME280;12223;42.650;23.364;2023-09-18T07:24:24;95268.13;;;25.40;61.61
11099;BME280;12223;42.650;23.364;2023-09-18T07:26:51;95262.91;;;25.43;63.67
11099;BME280;12223;42.650;23.364;2023-09-18T07:29:18;95260.78;;;26.09;62.00
11099;BME280;12223;42.650;23.364;2023-09-18T07:31:45;95266.84;;;25.92;61.25
11099;BME280;12223;42.650;23.364;2023-09-18T07:34:14;95268.22;;;25.89;61.11
11099;BME280;12223;42.650;23.364;2023-09-18T07:36:42;95271.03;;;25.98;60.75
11099;BME280;12223;42.650;23.364;2023-09-18T07:49:45;95255.97;;;27.48;55.30
11099;BME280;12223;42.650;23.364;2023-09-18T07:52:12;95266.31;;;27.37;55.20
11099;BME280;12223;42.650;23.364;2023-09-18T07:54:38;95264.94;;;27.57;53.47
11099;BME280;12223;42.650;23.364;2023-09-18T07:57:05;95260.50;;;27.70;52.51
11099;BME280;12223;42.650;23.364;2023-09-18T07:59:35;95263.81;;;27.18;53.91
11099;BME280;12223;42.650;23.364;2023-09-18T08:02:02;95263.28;;;27.08;55.08
11099;BME280;12223;42.650;23.364;2023-09-18T08:04:31;95265.00;;;26.37;56.75
11099;BME280;12223;42.650;23.364;2023-09-18T08:06:59;95263.94;;;25.34;61.01
11099;BME280;12223;42.650;23.364;2023-09-18T08:09:26;95246.28;;;25.50;61.43
11099;BME280;12223;42.650;23.364;2023-09-18T08:11:54;95245.47;;;25.90;60.30
11099;BME280;12223;42.650;23.364;2023-09-18T08:14:22;95253.38;;;26.00;59.91
11099;BME280;12223;42.650;23.364;2023-09-18T08:26:55;95241.56;;;26.19;58.46
11099;BME280;12223;42.650;23.364;2023-09-18T08:29:22;95241.13;;;26.39;57.96
11099;BME280;12223;42.650;23.364;2023-09-18T08:31:49;95233.94;;;26.88;56.16
11099;BME280;12223;42.650;23.364;2023-09-18T08:34:16;95228.78;;;27.31;54.96
11099;BME280;12223;42.650;23.364;2023-09-18T08:36:43;95236.63;;;27.41;53.41
11099;BME280;12223;42.650;23.364;2023-09-18T08:42:34;95234.53;;;26.76;55.17
11099;BME280;12223;42.650;23.364;2023-09-18T08:45:02;95227.22;;;27.07;54.36
11099;BME280;12223;42.650;23.364;2023-09-18T08:47:29;95219.34;;;27.28;53.54
11099;BME280;12223;42.650;23.364;2023-09-18T08:49:58;95225.97;;;27.05;54.07
11099;BME280;12223;42.650;23.364;2023-09-18T08:52:26;95216.69;;;26.30;55.73
11099;BME280;12223;42.650;23.364;2023-09-18T08:54:54;95223.66;;;25.46;59.12
11099;BME280;12223;42.650;23.364;2023-09-18T08:57:21;95227.06;;;25.79;57.33
11099;BME280;12223;42.650;23.364;2023-09-18T08:59:52;95223.25;;;25.39;58.52
11099;BME280;12223;42.650;23.364;2023-09-18T09:02:20;95216.47;;;26.05;56.97
11099;BME280;12223;42.650;23.364;2023-09-18T09:04:47;95215.69;;;26.04;56.00
11099;BME280;12223;42.650;23.364;2023-09-18T09:07:16;95216.28;;;26.01;57.67
11099;BME280;12223;42.650;23.364;2023-09-18T09:09:43;95211.22;;;26.66;54.65
11099;BME280;12223;42.650;23.364;2023-09-18T09:12:10;95214.72;;;26.45;53.46
11099;BME280;12223;42.650;23.364;2023-09-18T09:14:37;95210.09;;;26.67;52.34
11099;BME280;12223;42.650;23.364;2023-09-18T09:17:05;95212.00;;;26.22;52.53
11099;BME280;12223;42.650;23.364;2023-09-18T09:19:34;95218.97;;;26.37;53.38
11099;BME280;12223;42.650;23.364;2023-09-18T09:22:04;95214.09;;;26.25;54.07
11099;BME280;12223;42.650;23.364;2023-09-18T09:24:37;95207.47;;;25.95;55.34
11099;BME280;12223;42.650;23.364;2023-09-18T09:27:04;95203.13;;;26.08;56.14
11099;BME280;12223;42.650;23.364;2023-09-18T09:29:31;95207.66;;;26.35;54.44
11099;BME280;12223;42.650;23.364;2023-09-18T09:32:12;95201.78;;;26.64;53.39
11099;BME280;12223;42.650;23.364;2023-09-18T09:34:41;95199.19;;;27.12;50.97
11099;BME280;12223;42.650;23.364;2023-09-18T09:37:08;95195.41;;;27.78;49.06
11099;BME280;12223;42.650;23.364;2023-09-18T09:39:46;95194.44;;;27.74;48.43
11099;BME280;12223;42.650;23.364;2023-09-18T09:42:15;95196.38;;;28.08;48.01
11099;BME280;12223;42.650;23.364;2023-09-18T09:44:44;95194.97;;;28.45;46.70
11099;BME280;12223;42.650;23.364;2023-09-18T09:47:13;95197.13;;;28.95;45.51
11099;BME280;12223;42.650;23.364;2023-09-18T09:49:45;95190.63;;;29.16;43.84
11099;BME280;12223;42.650;23.364;2023-09-18T09:52:18;95183.13;;;29.13;43.23
11099;BME280;12223;42.650;23.364;2023-09-18T09:54:46;95189.94;;;29.37;42.76
11099;BME280;12223;42.650;23.364;2023-09-18T09:57:13;95176.81;;;29.59;41.95
11099;BME280;12223;42.650;23.364;2023-09-18T09:59:40;95178.22;;;29.66;41.43
11099;BME280;12223;42.650;23.364;2023-09-18T10:02:10;95180.16;;;29.65;42.22
11099;BME280;12223;42.650;23.364;2023-09-18T10:04:42;95179.28;;;29.14;42.33
11099;BME280;12223;42.650;23.364;2023-09-18T10:07:12;95176.91;;;28.06;44.48
11099;BME280;12223;42.650;23.364;2023-09-18T10:09:42;95177.59;;;27.38;45.70
11099;BME280;12223;42.650;23.364;2023-09-18T10:12:11;95170.72;;;27.40;44.82
11099;BME280;12223;42.650;23.364;2023-09-18T10:14:39;95170.19;;;27.69;45.07
11099;BME280;12223;42.650;23.364;2023-09-18T10:17:15;95173.34;;;27.71;44.86
11099;BME280;12223;42.650;23.364;2023-09-18T10:19:51;95164.97;;;27.42;44.59
11099;BME280;12223;42.650;23.364;2023-09-18T10:22:24;95168.19;;;27.44;45.04
11099;BME280;12223;42.650;23.364;2023-09-18T10:25:00;95166.19;;;27.67;44.50
11099;BME280;12223;42.650;23.364;2023-09-18T10:34:34;95159.28;;;27.04;43.94
11099;BME280;12223;42.650;23.364;2023-09-18T10:37:04;95148.41;;;26.20;46.92
11099;BME280;12223;42.650;23.364;2023-09-18T10:39:34;95143.31;;;25.96;48.50
11099;BME280;12223;42.650;23.364;2023-09-18T10:42:03;95145.25;;;26.71;47.04
11099;BME280;12223;42.650;23.364;2023-09-18T10:44:31;95146.50;;;27.44;45.05
11099;BME280;12223;42.650;23.364;2023-09-18T10:47:00;95138.31;;;27.35;45.29
11099;BME280;12223;42.650;23.364;2023-09-18T10:49:28;95132.44;;;27.50;44.33
11099;BME280;12223;42.650;23.364;2023-09-18T10:51:56;95118.59;;;27.95;43.32
11099;BME280;12223;42.650;23.364;2023-09-18T10:54:26;95125.47;;;27.92;43.54
11099;BME280;12223;42.650;23.364;2023-09-18T10:56:55;95119.06;;;28.31;42.94
11099;BME280;12223;42.650;23.364;2023-09-18T11:02:46;95119.88;;;27.06;44.10
11099;BME280;12223;42.650;23.364;2023-09-18T11:05:12;95126.91;;;27.07;44.08
11099;BME280;12223;42.650;23.364;2023-09-18T11:07:39;95123.34;;;26.59;45.43
11099;BME280;12223;42.650;23.364;2023-09-18T11:13:31;95116.41;;;26.44;45.54
11099;BME280;12223;42.650;23.364;2023-09-18T11:16:02;95109.41;;;26.21;45.70
11099;BME280;12223;42.650;23.364;2023-09-18T11:18:33;95111.06;;;26.08;45.99
11099;BME280;12223;42.650;23.364;2023-09-18T11:21:07;95101.09;;;26.70;45.36
11099;BME280;12223;42.650;23.364;2023-09-18T11:23:35;95101.09;;;27.10;44.45
11099;BME280;12223;42.650;23.364;2023-09-18T11:26:04;95102.69;;;26.71;44.45
11099;BME280;12223;42.650;23.364;2023-09-18T11:31:56;95091.66;;;26.99;44.10
11099;BME280;12223;42.650;23.364;2023-09-18T11:34:25;95089.00;;;26.76;44.51
11099;BME280;12223;42.650;23.364;2023-09-18T11:40:29;95075.09;;;26.69;43.74
11099;BME280;12223;42.650;23.364;2023-09-18T11:43:24;95082.88;;;26.62;44.23
11099;BME280;12223;42.650;23.364;2023-09-18T11:49:15;95067.53;;;27.54;43.60
11099;BME280;12223;42.650;23.364;2023-09-18T11:51:47;95079.16;;;27.97;42.32
11099;BME280;12223;42.650;23.364;2023-09-18T11:54:15;95075.47;;;27.76;41.13
11099;BME280;12223;42.650;23.364;2023-09-18T11:56:42;95062.06;;;28.14;40.83
11099;BME280;12223;42.650;23.364;2023-09-18T11:59:09;95059.56;;;28.47;40.26
11099;BME280;12223;42.650;23.364;2023-09-18T12:01:37;95062.16;;;28.44;41.18
11099;BME280;12223;42.650;23.364;2023-09-18T12:04:05;95055.03;;;28.05;40.90
11099;BME280;12223;42.650;23.364;2023-09-18T12:06:36;95068.41;;;28.73;40.30
11099;BME280;12223;42.650;23.364;2023-09-18T12:09:03;95065.41;;;29.04;39.68
11099;BME280;12223;42.650;23.364;2023-09-18T12:14:52;95064.59;;;28.11;40.93
11099;BME280;12223;42.650;23.364;2023-09-18T12:17:18;95071.75;;;27.20;43.55
11099;BME280;12223;42.650;23.364;2023-09-18T12:19:52;95074.75;;;27.02;45.02
11099;BME280;12223;42.650;23.364;2023-09-18T12:25:42;95049.00;;;26.73;46.38
11099;BME280;12223;42.650;23.364;2023-09-18T12:28:13;95047.69;;;27.28;45.33
11099;BME280;12223;42.650;23.364;2023-09-18T12:30:41;95074.06;;;27.53;44.68
11099;BME280;12223;42.650;23.364;2023-09-18T12:33:08;95051.44;;;26.53;47.86
11099;BME280;12223;42.650;23.364;2023-09-18T12:35:35;95054.31;;;26.56;47.79
11099;BME280;12223;42.650;23.364;2023-09-18T12:38:13;95064.13;;;26.13;48.51
11099;BME280;12223;42.650;23.364;2023-09-18T12:40:42;95048.13;;;26.25;48.61
11099;BME280;12223;42.650;23.364;2023-09-18T12:43:12;95049.59;;;26.70;47.67
11099;BME280;12223;42.650;23.364;2023-09-18T12:45:41;95043.00;;;26.94;47.15
11099;BME280;12223;42.650;23.364;2023-09-18T12:51:30;95046.22;;;27.04;45.87
11099;BME280;12223;42.650;23.364;2023-09-18T12:54:01;95042.75;;;27.64;44.63
11099;BME280;12223;42.650;23.364;2023-09-18T12:56:33;95035.41;;;27.90;43.08
11099;BME280;12223;42.650;23.364;2023-09-18T12:59:06;95039.88;;;27.86;43.51
11099;BME280;12223;42.650;23.364;2023-09-18T13:01:33;95037.97;;;27.70;43.24
11099;BME280;12223;42.650;23.364;2023-09-18T13:03:59;95029.66;;;27.83;42.94
11099;BME280;12223;42.650;23.364;2023-09-18T13:06:31;95038.63;;;27.67;43.84
11099;BME280;12223;42.650;23.364;2023-09-18T13:09:15;95037.97;;;27.44;43.80
11099;BME280;12223;42.650;23.364;2023-09-18T13:11:56;95027.25;;;27.39;45.46
11099;BME280;12223;42.650;23.364;2023-09-18T13:14:23;95033.75;;;28.24;42.79
11099;BME280;12223;42.650;23.364;2023-09-18T13:16:50;95035.69;;;28.23;43.27
11099;BME280;12223;42.650;23.364;2023-09-18T13:19:19;95028.00;;;28.25;43.15
11099;BME280;12223;42.650;23.364;2023-09-18T13:21:47;95028.69;;;27.96;42.60
11099;BME280;12223;42.650;23.364;2023-09-18T13:24:25;95034.91;;;27.97;42.81
11099;BME280;12223;42.650;23.364;2023-09-18T13:26:52;95020.41;;;27.84;43.83
11099;BME280;12223;42.650;23.364;2023-09-18T13:29:21;95012.88;;;28.54;42.23
11099;BME280;12223;42.650;23.364;2023-09-18T13:31:48;95021.47;;;28.26;41.71
11099;BME280;12223;42.650;23.364;2023-09-18T13:34:16;95022.59;;;28.25;42.14
11099;BME280;12223;42.650;23.364;2023-09-18T13:36:43;95021.00;;;28.62;40.87
11099;BME280;12223;42.650;23.364;2023-09-18T13:39:11;95014.44;;;28.63;40.79
11099;BME280;12223;42.650;23.364;2023-09-18T13:41:38;95024.00;;;28.31;40.86
11099;BME280;12223;42.650;23.364;2023-09-18T13:44:06;95023.13;;;27.93;41.93
11099;BME280;12223;42.650;23.364;2023-09-18T13:46:34;95024.56;;;27.30;43.32
11099;BME280;12223;42.650;23.364;2023-09-18T13:49:03;95026.47;;;27.47;43.28
11099;BME280;12223;42.650;23.364;2023-09-18T13:51:31;95019.28;;;27.34;43.12
11099;BME280;12223;42.650;23.364;2023-09-18T13:53:58;95017.88;;;27.53;42.72